Rockdale, Texas
Current Conditions -  °F | °C
As of 4:35 AM on Wednesday 22 Oct 2014 (Local Time) from KT35 Reporting Station
Clear Clear  
Wind Chill: 60°   Ceiling: Unl
Heat Index: 60°   Visibility: 10mi
Dew Point: 58°   Wind: 0mph
Humidity: 90%   Direction: NA
Pressure: 30.06"   Gusts: NA
Location:  30.66°N, 97°W
Report Text: KT35 220935Z AUTO 00000KT 10SM CLR 16/14 A3006 RMK AO2 T01580142
Loading
Personal Weather Stations






























Interactive Weather Map
Tropical Storm Tracking
New forecast layout! Learn more

10-Day Weather Forecast

Advertisements
Track Severe Weather on mobile